Time;durP1;ratioP1;P1;durP2;ratioP2;P2;SDS_P1;SDS_P2;PMS_P1;PMS_P2;Temp;Humidity;BMP_temperature;BMP_pressure;BME280_temperature;BME280_humidity;BME280_pressure;Samples;Min_cycle;Max_cycle;Signal;HPM_P1;HPM_P2
2021/08/06 00:01:50;;;;;;;0.95;0.80;;;;;;;14.97;90.24;95203.70;1717183;82;20949;-81
2021/08/06 00:04:16;;;;;;;0.82;0.60;;;;;;;14.92;90.18;95201.49;1718749;82;21270;-81
2021/08/06 00:06:42;;;;;;;1.00;0.50;;;;;;;14.85;90.28;95202.97;1690642;83;21447;-81
2021/08/06 00:09:09;;;;;;;1.05;0.85;;;;;;;14.83;90.56;95189.85;1712057;82;21125;-81
2021/08/06 00:11:35;;;;;;;2.12;0.68;;;;;;;14.84;91.10;95197.46;1709815;82;21277;-81
2021/08/06 00:14:01;;;;;;;2.50;0.60;;;;;;;14.86;90.66;95205.06;1747588;81;20933;-81
2021/08/06 00:16:27;;;;;;;0.85;0.60;;;;;;;14.86;90.93;95207.16;1748307;81;21023;-81
2021/08/06 00:18:53;;;;;;;0.45;0.45;;;;;;;14.82;90.80;95203.96;1745416;81;21316;-81
2021/08/06 00:21:19;;;;;;;0.50;0.50;;;;;;;14.86;91.06;95203.24;1754247;80;20952;-81
2021/08/06 00:23:45;;;;;;;0.37;0.35;;;;;;;14.91;91.00;95199.39;1727621;81;20996;-81
2021/08/06 00:26:12;;;;;;;0.62;0.50;;;;;;;14.93;91.23;95203.08;1715630;82;21000;-81
2021/08/06 00:28:37;;;;;;;0.78;0.55;;;;;;;14.85;91.07;95203.48;1710413;82;21013;-81
2021/08/06 00:31:03;;;;;;;1.32;0.55;;;;;;;14.82;91.36;95207.37;1712531;82;20919;-81
2021/08/06 00:33:29;;;;;;;0.53;0.40;;;;;;;14.79;91.25;95213.05;1708864;82;20923;-81
2021/08/06 00:35:55;;;;;;;1.35;0.45;;;;;;;14.73;91.28;95204.84;1725781;80;20990;-81
2021/08/06 00:38:20;;;;;;;1.10;0.80;;;;;;;14.68;91.42;95206.87;1749242;80;21367;-81
2021/08/06 00:40:46;;;;;;;1.22;0.68;;;;;;;14.64;91.85;95210.98;1749083;81;20989;-81
2021/08/06 00:43:12;;;;;;;0.70;0.60;;;;;;;14.62;91.69;95210.92;1752638;80;21013;-81
2021/08/06 00:45:37;;;;;;;1.62;0.70;;;;;;;14.67;92.01;95212.34;1748875;80;21527;-81
2021/08/06 00:48:04;;;;;;;0.93;0.80;;;;;;;14.70;91.83;95217.88;1740773;80;20956;-81
2021/08/06 00:50:30;;;;;;;0.98;0.88;;;;;;;14.73;91.68;95209.28;1751012;80;21040;-81
2021/08/06 00:52:56;;;;;;;1.55;1.10;;;;;;;14.77;91.58;95213.01;1746863;81;21069;-81
2021/08/06 00:55:21;;;;;;;1.55;1.37;;;;;;;14.79;91.42;95215.66;1714207;82;20950;-81
2021/08/06 00:57:47;;;;;;;1.12;1.02;;;;;;;14.75;91.33;95213.77;1713919;82;20982;-81
2021/08/06 01:00:13;;;;;;;1.90;1.20;;;;;;;14.69;91.16;95219.42;1722667;81;20977;-81
2021/08/06 01:02:58;;;;;;;1.55;1.30;;;;;;;14.66;91.15;95211.55;1711647;82;20985;-81
2021/08/06 01:05:29;;;;;;;1.45;1.10;;;;;;;14.63;91.19;95215.91;1724090;81;21087;-81
2021/08/06 01:08:25;;;;;;;1.20;1.10;;;;;;;14.59;91.07;95221.85;1706826;82;20996;-81
2021/08/06 01:10:59;;;;;;;1.40;1.00;;;;;;;14.57;91.29;95216.86;1722616;81;21031;-80
2021/08/06 01:13:40;;;;;;;1.90;0.95;;;;;;;14.57;91.43;95220.78;1747340;80;21041;-80
2021/08/06 01:16:06;;;;;;;2.17;1.30;;;;;;;14.54;91.09;95223.08;1722208;82;20965;-81
2021/08/06 01:18:34;;;;;;;1.32;1.22;;;;;;;14.50;91.17;95220.66;1722977;81;21359;-80
2021/08/06 01:21:09;;;;;;;2.17;1.20;;;;;;;14.48;91.62;95219.59;1715305;82;20946;-80
2021/08/06 01:23:34;;;;;;;1.20;1.10;;;;;;;14.46;91.48;95219.52;1723610;81;20992;-81
2021/08/06 01:26:14;;;;;;;1.30;1.20;;;;;;;14.45;91.41;95221.85;1723629;81;20987;-80
2021/08/06 01:28:43;;;;;;;1.90;0.70;;;;;;;14.42;91.23;95219.95;1727286;81;21529;-80
2021/08/06 01:31:09;;;;;;;1.15;1.05;;;;;;;14.40;91.18;95223.84;1724901;81;21488;-80
2021/08/06 01:33:35;;;;;;;1.27;1.17;;;;;;;14.37;91.32;95217.78;1723888;82;21020;-80
2021/08/06 01:36:01;;;;;;;1.50;1.37;;;;;;;14.35;91.26;95218.02;1723752;81;20990;-80
2021/08/06 01:38:27;;;;;;;1.57;1.20;;;;;;;14.40;91.51;95216.00;1716453;82;21063;-80
2021/08/06 01:41:16;;;;;;;1.30;1.15;;;;;;;14.38;91.27;95220.16;1724056;81;20977;-80
2021/08/06 01:44:19;;;;;;;2.30;1.87;;;;;;;14.31;91.21;95216.87;1708451;82;21068;-80
2021/08/06 01:46:50;;;;;;;1.57;1.47;;;;;;;14.24;91.44;95216.73;1721030;81;21362;-81
2021/08/06 01:49:31;;;;;;;2.45;1.90;;;;;;;14.23;91.78;95222.98;1720731;82;20981;-80
2021/08/06 01:52:05;;;;;;;1.60;1.50;;;;;;;14.24;91.77;95216.23;1723126;81;21047;-80
2021/08/06 01:54:31;;;;;;;2.22;1.98;;;;;;;14.29;92.09;95214.22;1707039;82;21443;-80
2021/08/06 01:56:57;;;;;;;2.83;2.62;;;;;;;14.26;92.08;95224.62;1692194;83;21435;-80
2021/08/06 01:59:23;;;;;;;2.65;2.45;;;;;;;14.19;91.57;95222.67;1723403;81;21079;-80
2021/08/06 02:01:48;;;;;;;3.00;2.80;;;;;;;14.17;91.85;95225.23;1712266;82;20954;-80
2021/08/06 02:04:14;;;;;;;2.40;2.20;;;;;;;14.16;91.85;95231.48;1724974;82;21423;-80
2021/08/06 02:06:43;;;;;;;3.10;2.80;;;;;;;14.13;91.93;95237.42;1708707;82;21017;-80
2021/08/06 02:09:16;;;;;;;3.50;3.20;;;;;;;14.10;91.88;95239.20;1710892;82;21031;-80
2021/08/06 02:11:42;;;;;;;3.42;3.12;;;;;;;14.08;91.90;95231.32;1756496;81;20959;-81
2021/08/06 02:14:07;;;;;;;4.12;3.83;;;;;;;14.09;92.02;95231.60;1745263;80;21241;-80
2021/08/06 02:16:33;;;;;;;3.65;3.37;;;;;;;14.09;92.31;95229.78;1750652;80;20986;-80
2021/08/06 02:18:59;;;;;;;4.62;4.22;;;;;;;14.10;92.47;95226.66;1717023;82;21040;-80
2021/08/06 02:21:30;;;;;;;4.42;4.12;;;;;;;14.05;91.99;95224.75;1747512;80;21384;-81
2021/08/06 02:23:59;;;;;;;4.25;3.85;;;;;;;14.06;92.16;95228.94;1744970;80;21488;-80
2021/08/06 02:26:25;;;;;;;3.90;3.60;;;;;;;14.09;92.41;95236.31;1750879;80;20926;-80
2021/08/06 02:28:51;;;;;;;4.12;3.80;;;;;;;14.08;92.30;95241.26;1750824;80;20984;-80
2021/08/06 02:31:20;;;;;;;4.28;3.98;;;;;;;14.08;92.05;95250.91;1754763;81;20943;-81
2021/08/06 02:33:45;;;;;;;3.20;2.27;;;;;;;14.12;92.22;95241.58;1759292;81;20945;-80
2021/08/06 02:36:11;;;;;;;3.25;2.95;;;;;;;14.16;92.08;95246.65;1709895;82;21638;-80
2021/08/06 02:38:38;;;;;;;3.52;3.17;;;;;;;14.10;92.05;95254.88;1709224;82;20933;-80
2021/08/06 02:41:04;;;;;;;4.67;3.42;;;;;;;14.03;92.13;95251.61;1712523;82;21368;-80
2021/08/06 02:43:30;;;;;;;4.17;3.77;;;;;;;13.97;92.21;95248.59;1706639;82;21075;-80
2021/08/06 02:45:55;;;;;;;2.60;2.40;;;;;;;13.96;92.42;95248.31;1710298;82;21355;-80
2021/08/06 02:48:21;;;;;;;2.67;2.47;;;;;;;13.99;92.45;95249.67;1705148;82;21434;-80
2021/08/06 02:50:47;;;;;;;2.83;2.62;;;;;;;14.01;92.36;95244.52;1692438;83;20968;-80
2021/08/06 02:53:13;;;;;;;3.00;2.55;;;;;;;14.03;92.21;95243.77;1715786;81;21069;-80
2021/08/06 02:55:39;;;;;;;2.42;2.20;;;;;;;14.01;92.25;95245.83;1708990;82;21466;-80
2021/08/06 02:58:04;;;;;;;2.62;2.30;;;;;;;13.98;92.63;95252.00;1710438;82;21014;-80
2021/08/06 03:00:31;;;;;;;3.22;2.50;;;;;;;13.90;92.04;95255.77;1748299;81;21082;-80
2021/08/06 03:02:56;;;;;;;2.77;2.58;;;;;;;13.89;92.95;95250.78;1706970;82;21065;-81
2021/08/06 03:05:22;;;;;;;2.20;2.00;;;;;;;13.87;92.41;95259.36;1712536;82;21057;-81
2021/08/06 03:07:52;;;;;;;2.45;2.25;;;;;;;13.85;92.61;95264.02;1704103;82;21347;-80
2021/08/06 03:10:19;;;;;;;2.40;2.20;;;;;;;13.84;92.46;95265.84;1716079;82;20937;-80
2021/08/06 03:12:46;;;;;;;2.45;2.10;;;;;;;13.86;92.18;95264.30;1701605;82;20993;-80
2021/08/06 03:15:13;;;;;;;2.22;2.00;;;;;;;13.86;92.31;95267.70;1695072;82;21000;-81
2021/08/06 03:17:41;;;;;;;2.52;1.87;;;;;;;13.81;92.56;95272.80;1731068;81;20958;-80
2021/08/06 03:20:15;;;;;;;1.85;1.75;;;;;;;13.78;92.43;95274.05;1736297;81;21089;-80
2021/08/06 03:22:41;;;;;;;2.67;2.45;;;;;;;13.77;92.61;95292.56;1742535;81;21066;-80
2021/08/06 03:25:08;;;;;;;3.25;2.20;;;;;;;13.75;92.64;95284.95;1714924;81;21355;-80
2021/08/06 03:27:34;;;;;;;2.17;1.98;;;;;;;13.75;92.64;95292.00;1732216;81;21335;-80
2021/08/06 03:30:00;;;;;;;2.05;1.87;;;;;;;13.73;92.52;95285.70;1712565;81;21017;-80
2021/08/06 03:32:26;;;;;;;2.40;1.98;;;;;;;13.77;92.54;95288.13;1737465;81;21016;-80
2021/08/06 03:34:51;;;;;;;2.52;2.17;;;;;;;13.81;92.61;95293.17;1714346;82;20993;-81
2021/08/06 03:37:17;;;;;;;2.27;1.90;;;;;;;13.85;92.66;95295.35;1702743;82;20976;-80
2021/08/06 03:39:43;;;;;;;2.37;2.17;;;;;;;13.88;92.36;95298.80;1715014;82;20953;-80
2021/08/06 03:42:08;;;;;;;2.12;1.80;;;;;;;13.92;92.66;95298.63;1700516;82;21044;-80
2021/08/06 03:44:34;;;;;;;2.47;2.27;;;;;;;13.90;92.35;95296.76;1717914;82;20935;-80
2021/08/06 03:47:00;;;;;;;3.12;2.20;;;;;;;13.87;92.18;95296.71;1709472;82;20922;-80
2021/08/06 03:49:26;;;;;;;2.75;2.52;;;;;;;13.86;92.15;95307.38;1739721;81;21023;-81
2021/08/06 03:51:51;;;;;;;3.22;2.90;;;;;;;13.84;92.30;95301.59;1710907;82;21332;-80
2021/08/06 03:54:17;;;;;;;4.58;3.00;;;;;;;13.84;92.31;95307.61;1711580;82;21139;-81
2021/08/06 03:56:44;;;;;;;3.85;3.47;;;;;;;13.81;91.98;95302.82;1725207;81;21349;-80
2021/08/06 03:59:09;;;;;;;3.72;2.92;;;;;;;13.82;92.39;95305.20;1714103;82;21010;-80
2021/08/06 04:01:35;;;;;;;4.00;3.60;;;;;;;13.82;92.41;95310.94;1707537;82;20987;-81
2021/08/06 04:04:01;;;;;;;3.55;3.25;;;;;;;13.81;92.21;95311.96;1717178;81;21004;-80
2021/08/06 04:06:27;;;;;;;3.55;3.25;;;;;;;13.82;92.44;95314.34;1671798;82;20976;-80
2021/08/06 04:08:52;;;;;;;3.62;3.33;;;;;;;13.85;92.40;95311.81;1705067;82;20976;-81
2021/08/06 04:11:20;;;;;;;3.90;3.60;;;;;;;13.85;92.15;95313.63;1709455;82;20937;-81
2021/08/06 04:13:46;;;;;;;4.80;4.40;;;;;;;13.85;92.29;95314.42;1705371;82;20988;-80
2021/08/06 04:16:12;;;;;;;4.90;4.50;;;;;;;13.86;92.42;95308.69;1718032;81;21357;-80
2021/08/06 04:18:38;;;;;;;4.37;4.08;;;;;;;13.84;92.40;95310.73;1720108;81;21074;-80
2021/08/06 04:21:04;;;;;;;4.97;4.47;;;;;;;13.81;92.42;95316.67;1721292;81;21416;-80
2021/08/06 04:23:30;;;;;;;4.80;4.40;;;;;;;13.82;92.38;95323.48;1718503;81;21025;-81
2021/08/06 04:25:56;;;;;;;4.20;3.77;;;;;;;13.82;92.29;95323.48;1715172;81;20960;-80
2021/08/06 04:28:21;;;;;;;7.10;6.45;;;;;;;13.84;92.25;95331.63;1719436;83;21331;-80
2021/08/06 04:30:47;;;;;;;4.10;3.50;;;;;;;13.85;92.25;95327.48;1718150;81;20996;-80
2021/08/06 04:33:13;;;;;;;4.12;3.80;;;;;;;13.82;92.07;95333.12;1720288;81;20961;-80
2021/08/06 04:35:38;;;;;;;3.62;3.33;;;;;;;13.85;92.33;95331.91;1718791;81;20891;-80
2021/08/06 04:38:04;;;;;;;2.92;2.72;;;;;;;13.90;92.19;95332.02;1688101;83;21000;-80
2021/08/06 04:40:30;;;;;;;4.40;3.80;;;;;;;13.90;92.14;95326.78;1721425;81;20941;-80
2021/08/06 04:42:56;;;;;;;3.35;3.00;;;;;;;13.88;91.99;95324.41;1719694;81;21013;-80
2021/08/06 04:45:22;;;;;;;3.87;3.30;;;;;;;13.91;92.27;95324.45;1717138;81;20946;-80
2021/08/06 04:47:50;;;;;;;3.87;3.33;;;;;;;13.89;92.19;95323.89;1721428;81;20990;-80
2021/08/06 04:50:20;;;;;;;3.17;2.90;;;;;;;13.84;92.32;95317.27;1709826;82;21384;-80
2021/08/06 04:52:46;;;;;;;4.60;4.20;;;;;;;13.80;92.18;95325.53;1719455;83;20972;-80
2021/08/06 04:55:12;;;;;;;4.20;3.77;;;;;;;13.82;92.30;95330.52;1720274;81;21068;-80
2021/08/06 04:57:38;;;;;;;4.53;4.12;;;;;;;13.82;92.57;95328.70;1717823;81;20929;-80
2021/08/06 05:00:06;;;;;;;6.62;5.05;;;;;;;13.85;92.51;95328.78;1720390;81;21426;-80
2021/08/06 05:02:31;;;;;;;5.15;4.72;;;;;;;13.88;92.51;95329.63;1720563;82;21365;-80
2021/08/06 05:04:57;;;;;;;5.55;4.97;;;;;;;13.87;92.54;95335.08;1734167;82;20990;-80
2021/08/06 05:07:23;;;;;;;6.95;6.35;;;;;;;13.84;92.66;95335.03;1728830;82;20972;-80
2021/08/06 05:09:49;;;;;;;6.30;5.80;;;;;;;13.82;92.76;95336.53;1712593;82;20975;-80
2021/08/06 05:12:14;;;;;;;6.05;5.55;;;;;;;13.84;92.82;95342.07;1708443;82;20948;-80
2021/08/06 05:14:41;;;;;;;6.62;6.05;;;;;;;13.85;92.77;95344.96;1714506;82;21060;-80
2021/08/06 05:17:08;;;;;;;6.70;6.10;;;;;;;13.89;92.82;95342.17;1711830;82;21330;-80
2021/08/06 05:19:34;;;;;;;6.70;5.70;;;;;;;13.86;92.74;95349.16;1681373;83;20971;-80
2021/08/06 05:22:00;;;;;;;6.20;5.70;;;;;;;13.85;92.80;95358.02;1713029;82;21360;-81
2021/08/06 05:24:25;;;;;;;5.90;5.17;;;;;;;13.78;92.79;95357.59;1711118;82;20967;-80
2021/08/06 05:26:51;;;;;;;6.62;5.95;;;;;;;13.78;93.01;95358.91;1712799;82;21000;-80
2021/08/06 05:29:17;;;;;;;6.10;5.50;;;;;;;13.76;92.95;95368.78;1712974;82;21012;-80
2021/08/06 05:31:42;;;;;;;7.08;6.47;;;;;;;13.76;93.07;95361.45;1717399;82;21468;-80
2021/08/06 05:34:08;;;;;;;6.97;6.30;;;;;;;13.74;93.06;95365.61;1701234;82;20943;-80
2021/08/06 05:36:34;;;;;;;6.90;6.30;;;;;;;13.79;93.46;95374.06;1701745;82;20951;-80
2021/08/06 05:39:00;;;;;;;7.40;6.70;;;;;;;13.78;93.19;95382.91;1706911;82;21314;-80
2021/08/06 05:41:25;;;;;;;7.30;6.70;;;;;;;13.78;93.17;95376.38;1711716;82;20951;-80
2021/08/06 05:43:51;;;;;;;7.83;6.97;;;;;;;13.78;93.07;95382.91;1710547;82;20915;-80
2021/08/06 05:46:17;;;;;;;7.37;6.67;;;;;;;13.76;93.18;95384.95;1707597;82;22092;-80
2021/08/06 05:48:43;;;;;;;8.15;7.35;;;;;;;13.76;93.27;95379.22;1717813;82;20966;-80
2021/08/06 05:51:08;;;;;;;8.68;7.87;;;;;;;13.77;93.35;95382.12;1701555;83;20945;-80
2021/08/06 05:53:34;;;;;;;9.43;8.55;;;;;;;13.78;93.24;95383.70;1690844;83;20952;-80
2021/08/06 05:56:01;;;;;;;7.55;6.85;;;;;;;13.77;93.34;95387.85;1691740;82;21122;-80
2021/08/06 05:58:27;;;;;;;8.45;7.67;;;;;;;13.77;93.53;95387.34;1716685;82;21413;-80
2021/08/06 06:00:53;;;;;;;7.87;7.17;;;;;;;13.72;93.26;95386.44;1716330;82;21047;-80
2021/08/06 06:03:19;;;;;;;7.92;7.22;;;;;;;13.74;93.46;95385.19;1738595;80;20971;-80
2021/08/06 06:05:45;;;;;;;7.60;7.00;;;;;;;13.78;93.46;95387.63;1732063;80;20953;-80
2021/08/06 06:08:11;;;;;;;6.00;5.50;;;;;;;13.79;93.23;95383.98;1736680;80;21351;-80
2021/08/06 06:10:36;;;;;;;6.90;6.30;;;;;;;13.78;93.35;95386.32;1729305;81;20971;-80
2021/08/06 06:13:03;;;;;;;6.00;5.50;;;;;;;13.79;93.26;95395.73;1724399;82;20976;-80
2021/08/06 06:15:29;;;;;;;6.92;6.25;;;;;;;13.81;93.37;95391.59;1733465;80;21472;-80
2021/08/06 06:17:55;;;;;;;6.65;6.00;;;;;;;13.85;93.43;95399.80;1734356;81;21376;-81
2021/08/06 06:20:21;;;;;;;7.62;6.53;;;;;;;13.88;93.40;95401.95;1722936;81;20920;-79
2021/08/06 06:22:46;;;;;;;7.37;6.67;;;;;;;13.87;93.32;95402.46;1721861;81;20979;-79
2021/08/06 06:25:12;;;;;;;7.22;6.60;;;;;;;13.88;93.41;95396.22;1705622;83;21352;-79
2021/08/06 06:27:50;;;;;;;7.15;6.55;;;;;;;13.88;93.46;95398.83;1722692;81;21015;-79
2021/08/06 06:30:15;;;;;;;7.15;6.55;;;;;;;13.90;93.50;95405.13;1713609;81;21124;-79
2021/08/06 06:32:41;;;;;;;8.28;7.47;;;;;;;13.92;93.40;95400.47;1711797;82;21116;-79
2021/08/06 06:35:08;;;;;;;6.62;5.87;;;;;;;13.96;93.52;95402.39;1737270;80;21414;-79
2021/08/06 06:37:33;;;;;;;7.45;6.78;;;;;;;13.99;93.39;95401.14;1729651;82;21008;-79
2021/08/06 06:39:59;;;;;;;7.40;6.80;;;;;;;13.98;93.29;95408.70;1738828;80;21036;-79
2021/08/06 06:42:25;;;;;;;7.75;7.05;;;;;;;13.94;93.26;95404.95;1696525;82;21375;-79
2021/08/06 06:44:51;;;;;;;8.20;7.40;;;;;;;13.89;93.36;95400.92;1737399;80;20993;-79
2021/08/06 06:47:16;;;;;;;7.50;6.90;;;;;;;13.89;94.05;95404.84;1716379;82;20931;-79
2021/08/06 06:49:42;;;;;;;6.92;6.33;;;;;;;13.87;93.54;95406.38;1736314;80;21352;-79
2021/08/06 06:52:08;;;;;;;7.28;6.67;;;;;;;13.88;93.76;95413.19;1704887;82;20997;-79
2021/08/06 06:54:33;;;;;;;7.65;7.03;;;;;;;13.88;93.62;95415.80;1688502;82;20961;-79
2021/08/06 06:56:59;;;;;;;7.28;6.67;;;;;;;13.89;93.67;95418.69;1733796;81;21099;-79
2021/08/06 06:59:25;;;;;;;7.10;6.47;;;;;;;13.89;93.84;95421.81;1740209;81;21450;-79
2021/08/06 07:01:51;;;;;;;8.65;6.92;;;;;;;13.88;93.96;95420.23;1736284;81;21032;-79
2021/08/06 07:04:17;;;;;;;7.45;6.75;;;;;;;13.82;93.99;95416.68;1730751;81;20968;-79
2021/08/06 07:06:43;;;;;;;7.97;7.15;;;;;;;13.90;93.91;95430.73;1728827;81;20987;-79
2021/08/06 07:09:09;;;;;;;7.47;6.78;;;;;;;13.93;93.97;95436.80;1735591;80;21295;-79
2021/08/06 07:11:35;;;;;;;7.65;6.78;;;;;;;13.98;94.00;95433.50;1729421;82;20953;-79
2021/08/06 07:14:01;;;;;;;7.47;6.87;;;;;;;14.04;94.22;95444.38;1731375;80;20988;-79
2021/08/06 07:16:27;;;;;;;7.97;7.28;;;;;;;14.05;93.85;95445.97;1750034;81;21390;-79
2021/08/06 07:18:52;;;;;;;8.55;7.67;;;;;;;14.06;93.75;95441.82;1730466;80;20946;-80
2021/08/06 07:21:18;;;;;;;7.28;6.67;;;;;;;14.08;93.79;95444.20;1705506;82;20965;-79
2021/08/06 07:23:44;;;;;;;7.53;6.70;;;;;;;14.10;93.90;95449.48;1732937;80;20963;-78
2021/08/06 07:26:10;;;;;;;7.67;6.97;;;;;;;14.15;93.90;95450.10;1747162;80;20988;-78
2021/08/06 07:28:37;;;;;;;7.90;7.10;;;;;;;14.19;93.78;95442.12;1731167;81;21260;-78
2021/08/06 07:31:03;;;;;;;10.55;9.50;;;;;;;14.22;93.59;95446.09;1724890;80;21442;-78
2021/08/06 07:33:29;;;;;;;12.78;11.48;;;;;;;14.25;93.93;95460.00;1732111;82;21770;-78
2021/08/06 07:35:55;;;;;;;8.28;7.53;;;;;;;14.24;94.16;95442.22;1735155;81;20974;-78
2021/08/06 07:38:21;;;;;;;7.60;7.00;;;;;;;14.32;93.49;95453.66;1716862;82;20941;-78
2021/08/06 07:40:46;;;;;;;8.08;7.37;;;;;;;14.34;93.59;95463.37;1738847;81;20984;-78
2021/08/06 07:43:12;;;;;;;7.53;6.83;;;;;;;14.39;93.75;95461.38;1731779;82;20925;-78
2021/08/06 07:45:38;;;;;;;8.05;7.35;;;;;;;14.42;93.71;95466.94;1734331;81;20933;-79
2021/08/06 07:48:04;;;;;;;9.13;8.33;;;;;;;14.46;93.33;95466.50;1732504;81;21015;-78
2021/08/06 07:50:30;;;;;;;10.40;9.58;;;;;;;14.47;93.36;95466.27;1726045;81;21027;-78
2021/08/06 07:52:56;;;;;;;9.80;9.10;;;;;;;14.50;93.19;95463.73;1729475;81;21012;-79
2021/08/06 07:55:21;;;;;;;46.35;24.52;;;;;;;14.46;93.26;95463.89;1732186;81;21026;-81
2021/08/06 07:57:49;;;;;;;71.28;38.45;;;;;;;14.42;93.13;95472.67;1734747;82;20957;-80
2021/08/06 08:00:16;;;;;;;68.75;46.75;;;;;;;14.44;93.17;95471.16;1725477;81;21055;-80
2021/08/06 08:02:42;;;;;;;21.42;19.20;;;;;;;14.52;93.59;95469.53;1730252;82;21410;-79
2021/08/06 08:05:09;;;;;;;28.02;25.15;;;;;;;14.57;93.36;95469.12;1729942;81;22103;-80
2021/08/06 08:07:35;;;;;;;13.38;12.05;;;;;;;14.63;93.29;95476.55;1725172;81;21051;-80
2021/08/06 08:10:00;;;;;;;16.20;14.58;;;;;;;14.67;93.37;95471.17;1726674;81;21070;-80
2021/08/06 08:12:26;;;;;;;25.70;15.35;;;;;;;14.65;93.12;95473.22;1730294;81;20988;-79
2021/08/06 08:14:52;;;;;;;12.80;11.48;;;;;;;14.65;92.95;95474.02;1723755;81;20929;-79
2021/08/06 08:17:18;;;;;;;9.48;8.20;;;;;;;14.66;92.46;95476.91;1725968;81;21023;-78
2021/08/06 08:19:45;;;;;;;10.72;8.00;;;;;;;14.69;92.85;95470.42;1704260;82;21370;-79
2021/08/06 08:22:12;;;;;;;11.73;8.38;;;;;;;14.68;92.46;95472.25;1725571;81;20941;-79
2021/08/06 08:24:37;;;;;;;6.75;6.03;;;;;;;14.67;92.68;95479.02;1727047;80;20968;-79
2021/08/06 08:27:05;;;;;;;13.35;10.20;;;;;;;14.68;92.60;95480.60;1734236;81;21317;-78
2021/08/06 08:29:31;;;;;;;11.10;9.90;;;;;;;14.74;93.22;95484.91;1730675;81;21082;-79
2021/08/06 08:31:57;;;;;;;8.65;7.40;;;;;;;14.85;93.10;95478.88;1705025;82;21130;-79
2021/08/06 08:34:24;;;;;;;11.65;7.53;;;;;;;14.92;93.04;95480.84;1718409;82;21026;-79
2021/08/06 08:36:50;;;;;;;6.42;5.83;;;;;;;14.95;92.80;95480.89;1732033;81;21607;-81
2021/08/06 08:39:17;;;;;;;6.33;4.90;;;;;;;14.98;92.75;95476.53;1731453;80;21507;-79
2021/08/06 08:41:43;;;;;;;7.55;6.20;;;;;;;15.03;92.30;95487.59;1720101;81;20957;-79
2021/08/06 08:44:09;;;;;;;43.15;20.20;;;;;;;15.05;92.21;95479.80;1736272;80;21337;-79
2021/08/06 08:46:34;;;;;;;7.00;6.05;;;;;;;15.08;92.27;95485.87;1722263;81;20976;-79
2021/08/06 08:49:01;;;;;;;6.45;4.97;;;;;;;15.10;91.76;95488.25;1735007;80;20939;-79
2021/08/06 08:51:27;;;;;;;11.45;7.40;;;;;;;15.17;92.18;95498.09;1731322;80;21337;-80
2021/08/06 08:53:55;;;;;;;22.75;12.70;;;;;;;15.30;91.66;95496.01;1706484;82;20997;-79
2021/08/06 08:56:23;;;;;;;7.90;5.67;;;;;;;15.41;92.28;95481.79;1701047;82;20986;-79
2021/08/06 08:58:49;;;;;;;11.08;6.62;;;;;;;15.51;91.28;95477.55;1719255;82;20942;-79
2021/08/06 09:01:15;;;;;;;6.25;4.50;;;;;;;15.53;91.28;95480.72;1699659;83;21080;-79
2021/08/06 09:03:46;;;;;;;9.03;6.05;;;;;;;15.56;90.61;95463.23;1702716;82;20911;-79
2021/08/06 09:06:12;;;;;;;4.90;3.80;;;;;;;15.50;89.67;95473.86;1704393;82;20918;-79
2021/08/06 09:08:38;;;;;;;4.90;4.00;;;;;;;15.40;89.55;95480.20;1706256;82;21268;-79
2021/08/06 09:11:11;;;;;;;4.17;3.50;;;;;;;15.34;89.75;95480.63;1703539;82;20981;-79
2021/08/06 09:13:36;;;;;;;4.25;3.83;;;;;;;15.27;89.85;95472.89;1706219;82;21061;-79
2021/08/06 09:16:02;;;;;;;5.33;4.25;;;;;;;15.22;89.79;95474.12;1717630;83;21010;-79
2021/08/06 09:18:38;;;;;;;6.25;4.78;;;;;;;15.18;89.85;95483.47;1710789;82;21358;-80
2021/08/06 09:21:18;;;;;;;4.83;4.15;;;;;;;15.15;89.98;95488.37;1690625;83;21025;-79
2021/08/06 09:23:58;;;;;;;5.60;4.35;;;;;;;15.13;90.22;95485.16;1714870;82;20943;-81
2021/08/06 09:26:31;;;;;;;4.35;3.75;;;;;;;15.09;89.69;95486.66;1701234;83;21001;-79
2021/08/06 09:29:10;;;;;;;6.20;4.83;;;;;;;15.14;90.24;95492.81;1731796;81;20925;-80
2021/08/06 09:31:57;;;;;;;8.38;5.08;;;;;;;15.24;89.65;95494.30;1729033;82;21011;-80
2021/08/06 09:34:33;;;;;;;7.05;4.15;;;;;;;15.36;89.63;95501.33;1713440;82;20965;-79
2021/08/06 09:37:12;;;;;;;5.45;3.85;;;;;;;15.44;89.50;95503.05;1705295;82;22102;-80
2021/08/06 09:39:49;;;;;;;14.10;7.90;;;;;;;15.50;89.06;95503.45;1705938;83;20986;-80
2021/08/06 09:42:27;;;;;;;5.35;4.08;;;;;;;15.53;88.57;95499.56;1730681;81;20945;-80
2021/08/06 09:45:01;;;;;;;10.13;5.67;;;;;;;15.47;88.08;95507.05;1706626;83;21007;-79
2021/08/06 09:47:27;;;;;;;6.40;5.15;;;;;;;15.42;87.70;95501.70;1709091;82;21470;-80
2021/08/06 09:49:55;;;;;;;7.83;6.40;;;;;;;15.39;87.99;95504.27;1716960;82;21011;-79
2021/08/06 09:52:31;;;;;;;9.83;6.42;;;;;;;15.43;88.39;95502.77;1699210;83;21062;-80
2021/08/06 09:54:56;;;;;;;14.03;7.30;;;;;;;15.50;88.82;95501.34;1724730;81;20970;-80
2021/08/06 09:57:22;;;;;;;9.78;5.25;;;;;;;15.52;88.39;95498.77;1701555;83;20988;-80
2021/08/06 09:59:54;;;;;;;4.80;4.25;;;;;;;15.57;88.53;95499.37;1677944;81;21381;-80
2021/08/06 10:02:22;;;;;;;;;;;;;;;15.61;88.64;95495.27;1692721;83;20991;-80
2021/08/06 10:05:07;;;;;;;4.17;3.77;;;;;;;15.58;87.91;95497.03;1712896;83;20143;-80
2021/08/06 10:07:37;;;;;;;6.00;5.50;;;;;;;15.49;87.36;95496.63;1704659;83;20949;-79
2021/08/06 10:10:06;;;;;;;5.10;4.67;;;;;;;15.43;87.94;95492.30;1702940;83;21036;-80
2021/08/06 10:12:32;;;;;;;6.25;5.55;;;;;;;15.43;88.10;95484.96;1704498;83;20954;-80
2021/08/06 10:14:57;;;;;;;5.58;4.10;;;;;;;15.44;88.83;95487.34;1712873;83;20977;-80
2021/08/06 10:17:23;;;;;;;4.90;3.55;;;;;;;15.45;88.71;95485.01;1707109;83;20965;-80
2021/08/06 10:19:49;;;;;;;5.00;3.90;;;;;;;15.45;88.47;95503.84;1717073;83;20977;-80
2021/08/06 10:22:15;;;;;;;7.40;4.55;;;;;;;15.45;88.64;95509.08;1717933;83;21290;-80
2021/08/06 10:24:44;;;;;;;5.15;3.75;;;;;;;15.43;88.41;95522.41;1705139;83;20977;-79
2021/08/06 10:27:09;;;;;;;6.17;3.92;;;;;;;15.40;87.71;95526.01;1705611;83;20925;-79
2021/08/06 10:29:35;;;;;;;3.65;3.20;;;;;;;15.37;87.99;95533.02;1689462;83;20942;-80
2021/08/06 10:32:15;;;;;;;4.33;3.67;;;;;;;15.35;87.61;95530.64;1706646;83;20971;-80
2021/08/06 10:35:06;;;;;;;5.42;2.42;;;;;;;15.34;87.39;95534.28;1713072;83;21069;-80
2021/08/06 10:38:04;;;;;;;4.03;3.05;;;;;;;15.34;86.96;95535.59;1703231;83;20907;-80
2021/08/06 10:40:41;;;;;;;3.60;3.30;;;;;;;15.37;86.72;95541.67;1709101;83;21439;-80
2021/08/06 10:43:16;;;;;;;4.35;3.40;;;;;;;15.38;86.96;95556.34;1705988;83;20969;-80
2021/08/06 10:45:52;;;;;;;4.25;3.50;;;;;;;15.38;86.87;95555.55;1709464;83;21033;-80
2021/08/06 10:48:40;;;;;;;6.12;3.85;;;;;;;15.38;86.75;95556.86;1704922;83;20938;-80
2021/08/06 10:51:26;;;;;;;3.08;2.50;;;;;;;15.41;86.88;95570.79;1699535;83;20960;-79
2021/08/06 10:54:00;;;;;;;3.58;2.20;;;;;;;15.33;83.86;95568.55;1713043;83;21026;-80
2021/08/06 10:56:31;;;;;;;2.67;2.08;;;;;;;15.21;84.03;95560.70;1703667;83;21049;-80
2021/08/06 10:59:13;;;;;;;3.27;2.80;;;;;;;15.14;84.75;95549.06;1700022;83;21066;-80
2021/08/06 11:01:48;;;;;;;5.15;2.85;;;;;;;15.12;85.04;95545.06;1725965;81;21408;-80
2021/08/06 11:04:20;;;;;;;3.27;2.70;;;;;;;15.07;85.63;95541.84;1719024;83;20953;-80
2021/08/06 11:06:54;;;;;;;4.90;3.45;;;;;;;15.06;86.33;95543.38;1725999;82;20950;-80
2021/08/06 11:09:35;;;;;;;5.50;3.37;;;;;;;15.08;86.72;95546.56;1728798;82;20953;-80
2021/08/06 11:12:07;;;;;;;3.30;3.00;;;;;;;15.07;86.95;95539.22;1727350;81;21479;-80
2021/08/06 11:14:44;;;;;;;14.87;6.80;;;;;;;15.06;87.18;95559.08;1722917;81;21333;-80
2021/08/06 11:17:20;;;;;;;16.25;9.98;;;;;;;15.04;87.70;95555.89;1733921;83;20996;-81
2021/08/06 11:19:55;;;;;;;9.60;6.37;;;;;;;15.00;87.70;95560.28;1717625;81;20965;-80
2021/08/06 11:22:34;;;;;;;10.60;7.55;;;;;;;15.03;88.08;95556.41;1713360;83;20985;-80
2021/08/06 11:25:06;;;;;;;5.95;5.05;;;;;;;15.06;88.24;95553.33;1721563;83;20942;-80
2021/08/06 11:27:38;;;;;;;14.53;7.70;;;;;;;15.12;88.50;95549.78;1694283;83;20977;-80
2021/08/06 11:30:14;;;;;;;6.70;5.20;;;;;;;15.15;88.05;95558.51;1729156;81;20986;-80
2021/08/06 11:32:57;;;;;;;7.50;6.58;;;;;;;15.17;87.83;95560.89;1717343;81;20961;-80
2021/08/06 11:35:39;;;;;;;7.58;6.45;;;;;;;15.28;88.95;95562.16;1724350;81;20928;-80
2021/08/06 11:38:09;;;;;;;8.13;5.85;;;;;;;15.40;88.78;95564.76;1718148;83;21286;-80